Terminal Aerodrome Forecast
Issued by NWS Cleveland, OH

Home | Current Version | Previous Version | Graphics & Text | Print | Product List | Glossary On
Versions: 1 2 3 4 5 6 7 8 9 10 11 12 13 14 15 16 17 18 19 20
000
FTUS41 KCLE 162100 AAB
TAFMFD
TAF AMD
KMFD 162129Z 1621/1718 25015G25KT 6SM -RA OVC008
     FM170000 25015G25KT P6SM OVC008
     FM170700 25014G22KT P6SM OVC012
     FM171500 26014G25KT P6SM BKN015=

USA.gov is the U.S. government's official web portal to all federal, state and local government web resources and services.